Time;durP1;ratioP1;P1;durP2;ratioP2;P2;SDS_P1;SDS_P2;PMS_P1;PMS_P2;Temp;Humidity;BMP_temperature;BMP_pressure;BME280_temperature;BME280_humidity;BME280_pressure;Samples;Min_cycle;Max_cycle;Signal;HPM_P1;HPM_P2
2021/04/01 00:00:13;;;;;;;34.90;16.00;;;7.30;99.90;;;;;;5054212;28;20091;-75
2021/04/01 00:02:40;;;;;;;31.15;16.52;;;7.30;99.90;;;;;;5054141;28;20047;-75
2021/04/01 00:05:07;;;;;;;33.67;17.70;;;7.30;99.90;;;;;;5055373;28;20033;-75
2021/04/01 00:07:33;;;;;;;41.15;20.65;;;7.30;99.90;;;;;;5055233;28;20144;-75
2021/04/01 00:09:59;;;;;;;35.78;20.13;;;7.30;99.90;;;;;;5053999;28;20100;-74
2021/04/01 00:12:24;;;;;;;42.42;20.38;;;7.20;99.90;;;;;;5053834;28;20021;-75
2021/04/01 00:14:50;;;;;;;37.60;18.60;;;7.20;99.90;;;;;;5054532;28;20025;-75
2021/04/01 00:17:17;;;;;;;34.95;19.25;;;7.20;99.90;;;;;;5055182;28;20096;-75
2021/04/01 00:19:42;;;;;;;34.28;18.65;;;7.20;99.90;;;;;;5054996;28;20028;-75
2021/04/01 00:22:08;;;;;;;39.88;21.02;;;7.10;99.90;;;;;;5055048;28;20387;-75
2021/04/01 00:24:34;;;;;;;46.08;23.02;;;7.10;99.90;;;;;;5054921;28;20025;-75
2021/04/01 00:26:59;;;;;;;58.45;29.67;;;7.00;99.90;;;;;;5054932;28;20451;-75
2021/04/01 00:29:25;;;;;;;49.17;28.33;;;7.00;99.90;;;;;;5054830;28;20029;-75
2021/04/01 00:31:51;;;;;;;69.60;34.75;;;6.90;99.90;;;;;;5054794;28;20036;-75
2021/04/01 00:34:17;;;;;;;48.97;26.85;;;6.90;99.90;;;;;;5053348;28;20497;-74
2021/04/01 00:36:42;;;;;;;52.55;29.23;;;6.80;99.90;;;;;;5053543;28;20394;-75
2021/04/01 00:39:09;;;;;;;57.67;28.85;;;6.80;99.90;;;;;;5053435;28;20028;-75
2021/04/01 00:41:34;;;;;;;46.13;25.17;;;6.80;99.90;;;;;;5053418;28;20429;-75
2021/04/01 00:44:04;;;;;;;44.05;22.92;;;6.70;99.90;;;;;;5053352;28;20020;-74
2021/04/01 00:46:30;;;;;;;37.28;18.75;;;6.70;99.90;;;;;;5053387;28;20068;-74
2021/04/01 00:48:55;;;;;;;40.35;20.73;;;6.60;99.90;;;;;;5053166;28;20057;-74
2021/04/01 00:51:21;;;;;;;37.35;18.85;;;6.60;99.90;;;;;;5053251;28;20025;-76
2021/04/01 00:53:47;;;;;;;37.00;20.38;;;6.60;99.90;;;;;;5053137;28;20021;-74
2021/04/01 00:56:13;;;;;;;39.25;19.63;;;6.60;99.90;;;;;;5053190;28;20475;-75
2021/04/01 00:58:38;;;;;;;44.53;20.95;;;6.60;99.90;;;;;;5054355;28;20021;-75
2021/04/01 01:01:24;;;;;;;36.00;18.77;;;6.60;99.90;;;;;;5052992;28;20025;-76
2021/04/01 01:03:50;;;;;;;39.75;21.00;;;6.60;99.90;;;;;;5052838;28;20025;-75
2021/04/01 01:06:16;;;;;;;42.05;21.25;;;6.50;99.90;;;;;;5054170;28;20029;-75
2021/04/01 01:08:42;;;;;;;40.40;21.77;;;6.40;99.90;;;;;;5053986;28;20405;-74
2021/04/01 01:11:08;;;;;;;35.33;19.73;;;6.40;99.90;;;;;;5054080;28;20029;-74
2021/04/01 01:13:34;;;;;;;36.58;20.40;;;6.40;99.90;;;;;;5054057;28;20029;-75
2021/04/01 01:15:59;;;;;;;42.33;22.40;;;6.40;99.90;;;;;;5052766;28;20029;-74
2021/04/01 01:18:28;;;;;;;57.50;27.55;;;6.30;99.90;;;;;;5052787;28;20501;-75
2021/04/01 01:21:01;;;;;;;54.55;26.17;;;6.20;99.90;;;;;;5052629;28;20017;-74
2021/04/01 01:23:27;;;;;;;59.05;27.65;;;6.20;99.90;;;;;;5053355;28;20025;-74
2021/04/01 01:25:57;;;;;;;49.90;27.25;;;6.20;99.90;;;;;;5052542;28;20082;-74
2021/04/01 01:28:23;;;;;;;51.35;23.85;;;6.10;99.90;;;;;;5052555;28;20601;-74
2021/04/01 01:30:51;;;;;;;45.10;22.67;;;6.10;99.90;;;;;;5053554;28;20050;-74
2021/04/01 01:33:19;;;;;;;42.70;22.38;;;6.10;99.90;;;;;;5053692;28;20021;-75
2021/04/01 01:35:47;;;;;;;46.25;23.80;;;6.20;99.90;;;;;;5052315;28;20112;-74
2021/04/01 01:38:13;;;;;;;48.47;24.33;;;6.20;99.90;;;;;;5053634;28;20083;-75
2021/04/01 01:40:39;;;;;;;51.40;26.67;;;6.20;99.90;;;;;;5052274;28;20154;-75
2021/04/01 01:43:08;;;;;;;56.88;27.73;;;6.20;99.90;;;;;;5053558;28;20146;-75
2021/04/01 01:45:34;;;;;;;61.85;30.83;;;6.20;99.90;;;;;;5052150;28;20091;-74
2021/04/01 01:48:00;;;;;;;67.97;32.63;;;6.10;99.90;;;;;;5053478;28;20036;-74
2021/04/01 01:50:31;;;;;;;68.85;32.38;;;6.10;99.90;;;;;;5052092;28;20071;-75
2021/04/01 01:52:58;;;;;;;70.25;33.55;;;6.10;99.90;;;;;;5052098;28;20075;-74
2021/04/01 01:55:24;;;;;;;64.22;28.95;;;6.10;99.90;;;;;;5053290;28;20521;-74
2021/04/01 01:57:50;;;;;;;51.13;24.38;;;6.00;99.90;;;;;;5051958;28;20035;-74
2021/04/01 02:00:20;;;;;;;48.03;25.13;;;6.00;99.90;;;;;;5053214;28;20032;-75
2021/04/01 02:02:56;;;;;;;48.10;25.52;;;6.00;99.90;;;;;;5051938;28;20042;-74
2021/04/01 02:05:24;;;;;;;60.50;27.55;;;6.00;99.90;;;;;;5053184;28;20028;-74
2021/04/01 02:07:50;;;;;;;51.97;26.77;;;6.00;99.90;;;;;;5051791;28;20041;-74
2021/04/01 02:10:26;;;;;;;55.00;27.58;;;6.00;99.90;;;;;;5053056;28;20025;-74
2021/04/01 02:12:56;;;;;;;53.95;27.23;;;5.90;99.90;;;;;;5051831;28;20036;-74
2021/04/01 02:15:28;;;;;;;66.35;33.63;;;5.90;99.90;;;;;;5052921;28;20485;-73
2021/04/01 02:18:06;;;;;;;60.23;28.50;;;5.90;99.90;;;;;;5053092;28;20025;-74
2021/04/01 02:20:40;;;;;;;64.40;29.88;;;5.90;99.90;;;;;;5051527;28;20021;-74
2021/04/01 02:23:11;;;;;;;51.50;26.42;;;5.90;99.90;;;;;;5051711;28;20082;-74
2021/04/01 02:25:39;;;;;;;48.35;26.35;;;5.80;99.90;;;;;;5051517;28;20067;-74
2021/04/01 02:28:06;;;;;;;51.03;26.63;;;5.80;99.90;;;;;;5051603;28;20048;-74
2021/04/01 02:30:33;;;;;;;47.97;27.45;;;5.80;99.90;;;;;;5051466;28;20021;-74
2021/04/01 02:32:59;;;;;;;53.75;26.48;;;5.80;99.90;;;;;;5052772;28;20048;-74
2021/04/01 02:35:25;;;;;;;42.47;25.88;;;5.80;99.90;;;;;;5051823;28;20075;-74
2021/04/01 02:37:50;;;;;;;48.70;25.75;;;5.80;99.90;;;;;;5052743;28;20028;-74
2021/04/01 02:40:17;;;;;;;48.05;25.75;;;5.70;99.90;;;;;;5052720;28;20032;-74
2021/04/01 02:42:43;;;;;;;51.03;25.58;;;5.70;99.90;;;;;;5051333;28;20052;-74
2021/04/01 02:45:10;;;;;;;49.42;26.88;;;5.60;99.90;;;;;;5052634;28;20071;-74
2021/04/01 02:47:36;;;;;;;46.65;25.02;;;5.60;99.90;;;;;;5052524;28;20035;-74
2021/04/01 02:50:04;;;;;;;48.83;29.13;;;5.60;99.90;;;;;;5052716;28;20096;-74
2021/04/01 02:52:30;;;;;;;47.33;28.20;;;5.60;99.90;;;;;;5050774;28;20102;-74
2021/04/01 02:54:56;;;;;;;53.30;28.10;;;5.50;99.90;;;;;;5052315;28;20109;-75
2021/04/01 02:57:21;;;;;;;54.25;29.40;;;5.50;99.90;;;;;;5052595;28;20497;-74
2021/04/01 02:59:47;;;;;;;51.30;28.17;;;5.50;99.90;;;;;;5051209;28;20017;-75
2021/04/01 03:02:14;;;;;;;76.65;30.60;;;5.50;99.90;;;;;;5052605;28;20021;-75
2021/04/01 03:04:41;;;;;;;49.35;26.83;;;5.40;99.90;;;;;;5051151;28;20043;-74
2021/04/01 03:07:07;;;;;;;54.38;26.88;;;5.40;99.90;;;;;;5052495;28;20021;-75
2021/04/01 03:09:33;;;;;;;56.53;30.25;;;5.40;99.90;;;;;;5052415;28;20029;-73
2021/04/01 03:12:00;;;;;;;56.78;28.50;;;5.30;99.90;;;;;;5051191;28;20021;-73
2021/04/01 03:14:26;;;;;;;55.55;28.25;;;5.30;99.90;;;;;;5051065;28;20048;-74
2021/04/01 03:16:52;;;;;;;51.72;28.27;;;5.30;99.90;;;;;;5050617;28;20098;-75
2021/04/01 03:19:18;;;;;;;57.15;30.10;;;5.20;99.90;;;;;;5052323;28;20056;-74
2021/04/01 03:21:45;;;;;;;61.55;29.55;;;5.30;99.90;;;;;;5052430;28;20639;-75
2021/04/01 03:24:11;;;;;;;63.33;29.38;;;5.20;99.90;;;;;;5050999;28;20474;-74
2021/04/01 03:26:37;;;;;;;55.78;27.67;;;5.10;99.90;;;;;;5052270;28;20017;-74
2021/04/01 03:29:03;;;;;;;57.00;28.85;;;5.10;99.90;;;;;;5050943;28;20047;-74
2021/04/01 03:31:29;;;;;;;54.85;28.77;;;5.20;99.90;;;;;;5050960;28;20025;-75
2021/04/01 03:33:54;;;;;;;55.42;27.77;;;5.10;99.90;;;;;;5050891;28;20070;-74
2021/04/01 03:36:20;;;;;;;55.13;28.50;;;5.10;99.90;;;;;;5050946;28;20052;-75
2021/04/01 03:38:47;;;;;;;51.80;28.65;;;5.10;99.90;;;;;;5050805;28;20021;-75
2021/04/01 03:41:13;;;;;;;54.13;27.88;;;5.10;99.90;;;;;;5052045;28;20024;-74
2021/04/01 03:43:39;;;;;;;52.47;29.38;;;5.10;99.90;;;;;;5052003;28;20087;-74
2021/04/01 03:46:06;;;;;;;55.25;30.35;;;5.10;99.90;;;;;;5052249;28;20021;-75
2021/04/01 03:48:32;;;;;;;52.40;28.65;;;5.10;99.90;;;;;;5054355;28;20066;-74
2021/04/01 03:50:58;;;;;;;50.03;27.40;;;5.10;99.90;;;;;;5055618;28;20025;-74
2021/04/01 03:53:23;;;;;;;51.53;27.08;;;5.10;99.90;;;;;;5054367;28;20043;-75
2021/04/01 03:55:50;;;;;;;50.03;26.42;;;5.00;99.90;;;;;;5054313;28;20114;-75
2021/04/01 04:06:36;;;;;;;47.95;25.30;;;4.80;99.90;;;;;;5055472;28;20021;-75
2021/04/01 04:11:57;;;;;;;51.05;26.88;;;4.70;99.90;;;;;;5055541;28;20025;-75
2021/04/01 04:16:47;;;;;;;57.60;28.20;;;4.70;99.90;;;;;;5055546;28;20025;-74
2021/04/01 04:19:13;;;;;;;49.60;26.65;;;4.70;99.90;;;;;;5053834;28;20036;-74
2021/04/01 04:21:40;;;;;;;53.45;27.52;;;4.70;99.90;;;;;;5053766;28;20070;-75
2021/04/01 04:24:09;;;;;;;50.60;26.23;;;4.70;99.90;;;;;;5053690;28;20029;-75
2021/04/01 04:26:35;;;;;;;55.63;29.63;;;4.70;99.90;;;;;;5054729;28;20032;-74
2021/04/01 04:29:01;;;;;;;43.80;27.00;;;4.70;99.90;;;;;;5053553;28;20033;-76
2021/04/01 04:31:26;;;;;;;55.05;28.75;;;4.70;99.90;;;;;;5053096;28;20541;-74
2021/04/01 04:33:52;;;;;;;56.88;28.92;;;4.70;99.90;;;;;;5054345;28;20462;-74
2021/04/01 04:36:18;;;;;;;56.53;30.20;;;4.70;99.90;;;;;;5054780;28;20021;-75
2021/04/01 04:38:43;;;;;;;50.78;27.63;;;4.80;99.90;;;;;;5053375;28;20021;-75
2021/04/01 04:41:09;;;;;;;50.45;29.33;;;4.80;99.90;;;;;;5054800;28;20017;-75
2021/04/01 04:43:35;;;;;;;45.33;27.55;;;4.70;99.90;;;;;;5053421;28;20437;-75
2021/04/01 04:46:02;;;;;;;49.22;27.10;;;4.70;99.90;;;;;;5054631;28;20025;-74
2021/04/01 04:48:28;;;;;;;50.03;26.27;;;4.80;99.90;;;;;;5053277;28;20051;-74
2021/04/01 04:50:54;;;;;;;55.22;28.80;;;4.80;99.90;;;;;;5054227;28;20025;-74
2021/04/01 04:53:20;;;;;;;56.58;30.70;;;4.80;99.90;;;;;;5053261;28;20056;-75
2021/04/01 05:07:02;;;;;;;55.72;27.83;;;5.00;99.90;;;;;;5054127;28;20498;-75
2021/04/01 05:09:09;;;;;;;51.13;27.55;;;5.00;99.90;;;;;;5050972;28;20036;-75
2021/04/01 05:11:35;;;;;;;50.28;28.13;;;5.10;99.90;;;;;;5052915;28;20079;-75
2021/04/01 05:14:01;;;;;;;54.45;29.67;;;5.20;99.90;;;;;;5052780;28;20203;-75
2021/04/01 05:16:27;;;;;;;51.78;27.90;;;5.20;99.90;;;;;;5052877;28;21040;-75
2021/04/01 05:18:54;;;;;;;51.60;27.95;;;5.30;99.90;;;;;;5052656;28;20108;-76
2021/04/01 05:21:30;;;;;;;51.38;29.88;;;5.40;99.90;;;;;;5052075;28;20425;-74
2021/04/01 05:23:57;;;;;;;78.35;33.67;;;5.50;99.90;;;;;;5052599;28;20029;-76
2021/04/01 05:26:44;;;;;;;68.97;31.33;;;5.60;99.90;;;;;;5052554;28;20022;-76
2021/04/01 05:29:13;;;;;;;64.00;32.42;;;5.80;99.90;;;;;;5053792;28;20083;-75
2021/04/01 05:31:40;;;;;;;60.97;32.20;;;5.90;99.90;;;;;;5050290;28;20513;-74
2021/04/01 05:34:07;;;;;;;59.83;33.92;;;6.00;99.90;;;;;;5045367;28;20028;-75
2021/04/01 05:36:35;;;;;;;62.13;32.65;;;6.20;99.90;;;;;;5043362;28;20102;-75
2021/04/01 05:39:02;;;;;;;53.20;31.00;;;6.30;99.90;;;;;;5030442;28;20168;-75
2021/04/01 05:41:30;;;;;;;59.33;33.42;;;6.40;99.90;;;;;;5034778;28;20075;-75
2021/04/01 05:46:59;;;;;;;52.97;28.63;;;6.70;99.90;;;;;;5025016;28;20033;-75
2021/04/01 06:00:51;;;;;;;42.92;24.30;;;7.50;99.90;;;;;;5045328;28;20113;-75
2021/04/01 06:05:53;;;;;;;61.53;33.33;;;7.90;99.90;;;;;;5039894;28;20029;-75
2021/04/01 06:08:24;;;;;;;58.05;32.90;;;8.00;99.90;;;;;;5051594;28;20057;-76
2021/04/01 06:10:54;;;;;;;64.63;33.10;;;8.20;99.90;;;;;;5051778;28;20382;-76
2021/04/01 06:13:23;;;;;;;56.88;33.45;;;8.40;99.90;;;;;;5051268;28;20116;-77
2021/04/01 06:15:51;;;;;;;51.35;30.75;;;8.60;99.90;;;;;;5051263;28;20021;-77
2021/04/01 06:18:20;;;;;;;67.40;33.72;;;8.80;99.90;;;;;;5050846;28;20021;-76
2021/04/01 06:20:48;;;;;;;55.28;31.63;;;9.00;99.90;;;;;;5047286;28;20064;-76
2021/04/01 06:23:32;;;;;;;62.60;31.83;;;9.30;99.90;;;;;;5050841;28;20017;-76
2021/04/01 06:25:59;;;;;;;61.45;33.72;;;9.60;99.90;;;;;;5052744;28;20033;-76
2021/04/01 06:28:44;;;;;;;61.03;32.85;;;9.90;99.90;;;;;;5051336;28;20125;-76
2021/04/01 06:31:12;;;;;;;56.17;31.20;;;10.20;99.90;;;;;;5051690;28;20029;-77
2021/04/01 06:33:47;;;;;;;57.45;32.78;;;10.50;99.90;;;;;;5051307;28;20036;-77
2021/04/01 06:36:21;;;;;;;51.85;29.73;;;10.70;99.90;;;;;;5052664;28;20070;-77
2021/04/01 06:38:48;;;;;;;51.50;31.13;;;11.00;99.90;;;;;;5051577;28;20029;-77
2021/04/01 06:41:23;;;;;;;49.15;29.15;;;11.20;99.90;;;;;;5050408;28;20013;-77
2021/04/01 06:44:10;;;;;;;42.97;26.90;;;11.40;99.90;;;;;;5050380;28;20028;-77
2021/04/01 06:46:47;;;;;;;49.35;28.65;;;11.60;99.90;;;;;;5052605;28;20021;-78
2021/04/01 06:58:07;;;;;;;41.85;25.05;;;12.60;99.90;;;;;;5030707;28;20034;-75
2021/04/01 07:03:07;;;;;;;43.03;22.85;;;13.00;93.90;;;;;;5052371;28;20025;-75
2021/04/01 07:05:50;;;;;;;36.80;22.13;;;13.10;92.00;;;;;;5051182;28;20051;-76
2021/04/01 07:08:21;;;;;;;40.05;20.85;;;13.30;88.40;;;;;;5051767;28;20036;-76
2021/04/01 07:13:18;;;;;;;41.08;22.95;;;13.60;85.90;;;;;;5037468;28;20034;-76
2021/04/01 07:15:51;;;;;;;40.20;22.17;;;13.80;85.20;;;;;;5044642;28;20021;-78
2021/04/01 07:21:16;;;;;;;39.22;21.05;;;14.00;81.70;;;;;;5047502;28;20029;-76
2021/04/01 07:24:12;;;;;;;33.15;20.10;;;14.20;82.10;;;;;;5043457;28;20457;-79
2021/04/01 07:48:43;;;;;;;37.00;20.27;;;15.30;72.40;;;;;;5048997;28;20442;-78
2021/04/01 07:54:11;;;;;;;38.45;20.55;;;15.50;70.10;;;;;;5051497;28;20040;-79
2021/04/01 07:56:49;;;;;;;39.33;19.75;;;15.70;70.70;;;;;;5033765;28;20388;-78
2021/04/01 08:04:40;;;;;;;33.20;17.88;;;16.20;66.20;;;;;;5052043;28;20178;-79
2021/04/01 08:07:11;;;;;;;36.00;19.35;;;16.30;66.70;;;;;;5040121;28;20550;-80
2021/04/01 08:09:43;;;;;;;31.85;15.98;;;16.50;66.10;;;;;;5049926;28;20159;-81
2021/04/01 08:12:25;;;;;;;33.05;18.38;;;16.70;65.00;;;;;;5034678;28;20029;-80
2021/04/01 08:15:03;;;;;;;29.85;16.88;;;16.80;63.50;;;;;;5044697;28;20491;-79
2021/04/01 08:17:42;;;;;;;32.53;17.77;;;17.00;62.30;;;;;;5049203;28;20036;-80
2021/04/01 08:20:10;;;;;;;29.95;17.05;;;17.20;61.70;;;;;;5052563;28;20493;-80
2021/04/01 08:22:44;;;;;;;33.22;16.60;;;17.30;60.00;;;;;;5042049;28;20021;-79
2021/04/01 08:25:12;;;;;;;28.08;14.90;;;17.40;57.10;;;;;;5044569;28;20029;-80
2021/04/01 08:27:57;;;;;;;29.40;15.98;;;17.60;57.70;;;;;;5044254;28;20044;-78
2021/04/01 08:35:33;;;;;;;33.00;15.65;;;18.10;56.00;;;;;;5045755;28;20048;-79
2021/04/01 08:40:27;;;;;;;26.30;14.65;;;18.50;53.30;;;;;;5040849;28;20093;-79
2021/04/01 08:43:07;;;;;;;34.20;15.88;;;18.60;52.20;;;;;;5048613;28;20021;-79
2021/04/01 08:45:55;;;;;;;28.65;14.20;;;18.70;52.40;;;;;;5041231;28;20478;-80
2021/04/01 08:48:50;;;;;;;30.27;14.02;;;19.00;52.60;;;;;;5036351;28;20047;-84
2021/04/01 08:51:43;;;;;;;30.45;14.98;;;19.00;48.40;;;;;;5038743;28;20048;-82
2021/04/01 08:54:15;;;;;;;32.60;14.88;;;19.20;50.40;;;;;;5041852;28;20025;-79
2021/04/01 08:56:56;;;;;;;27.52;14.15;;;19.40;50.70;;;;;;5049743;28;20020;-83
2021/04/01 08:59:25;;;;;;;26.50;13.38;;;19.40;49.40;;;;;;5043435;28;20022;-80
2021/04/01 09:01:55;;;;;;;25.77;13.68;;;19.30;48.40;;;;;;5043042;28;20372;-82
2021/04/01 09:04:26;;;;;;;26.77;12.65;;;19.00;47.50;;;;;;5038453;28;20091;-82
2021/04/01 09:07:03;;;;;;;23.40;11.85;;;19.00;46.40;;;;;;5045024;28;20017;-84
2021/04/01 09:09:35;;;;;;;23.60;13.23;;;19.10;45.50;;;;;;5043637;28;20025;-82
2021/04/01 09:12:17;;;;;;;24.20;12.60;;;19.40;45.80;;;;;;5047439;28;20386;-87
2021/04/01 09:14:50;;;;;;;25.27;13.68;;;19.60;44.10;;;;;;5044609;28;20025;-89
2021/04/01 09:17:16;;;;;;;26.65;12.95;;;19.80;43.60;;;;;;5039860;28;20104;-81
2021/04/01 09:19:45;;;;;;;27.83;12.98;;;19.90;43.00;;;;;;5040799;28;20021;-82
2021/04/01 09:22:23;;;;;;;23.95;12.27;;;19.90;41.70;;;;;;5048256;28;20025;-81
2021/04/01 09:24:59;;;;;;;26.25;12.57;;;19.80;41.40;;;;;;5064900;28;20390;-83
2021/04/01 09:27:26;;;;;;;24.27;13.60;;;19.90;42.00;;;;;;5051963;28;20037;-81
2021/04/01 09:30:08;;;;;;;28.40;14.27;;;20.00;42.10;;;;;;5045047;28;20087;-81
2021/04/01 09:32:36;;;;;;;31.73;13.40;;;19.90;41.90;;;;;;5046731;28;20052;-85
2021/04/01 09:35:05;;;;;;;25.85;13.43;;;20.10;41.70;;;;;;5048825;28;20029;-84
2021/04/01 09:37:31;;;;;;;26.48;13.68;;;20.10;42.20;;;;;;5051828;28;20024;-83
2021/04/01 09:40:08;;;;;;;24.85;13.30;;;20.10;41.70;;;;;;5047958;28;20025;-81
2021/04/01 09:42:42;;;;;;;26.35;14.82;;;20.30;42.40;;;;;;5052797;28;20021;-80
2021/04/01 09:45:10;;;;;;;32.35;14.07;;;20.40;41.70;;;;;;5053427;28;20095;-80
2021/04/01 09:47:49;;;;;;;31.20;14.30;;;20.40;40.40;;;;;;5052126;28;20036;-81
2021/04/01 09:50:16;;;;;;;36.20;17.33;;;20.30;41.00;;;;;;5053417;28;20109;-81
2021/04/01 09:52:54;;;;;;;29.08;12.95;;;20.30;40.80;;;;;;5050810;28;20386;-81
2021/04/01 09:55:21;;;;;;;24.38;13.55;;;20.50;40.10;;;;;;5051164;28;20394;-81
2021/04/01 09:57:50;;;;;;;31.45;15.32;;;20.70;39.80;;;;;;5053198;28;20096;-81
2021/04/01 10:00:48;;;;;;;22.55;12.85;;;20.80;40.50;;;;;;5052268;28;20112;-81
2021/04/01 10:03:44;;;;;;;21.92;11.35;;;21.00;39.00;;;;;;5051997;28;20104;-81
2021/04/01 10:06:10;;;;;;;25.05;13.38;;;21.10;36.80;;;;;;5047256;28;20032;-81
2021/04/01 10:08:36;;;;;;;23.55;12.43;;;20.90;35.90;;;;;;5053111;28;20037;-81
2021/04/01 10:11:20;;;;;;;23.75;13.57;;;21.00;37.30;;;;;;5052920;28;20100;-81
2021/04/01 10:13:46;;;;;;;22.27;11.80;;;21.10;37.60;;;;;;5052733;28;20032;-81
2021/04/01 10:16:23;;;;;;;17.52;10.10;;;21.30;36.30;;;;;;5053011;28;20450;-81
2021/04/01 10:18:50;;;;;;;23.48;12.93;;;21.20;34.30;;;;;;5051675;28;20019;-81
2021/04/01 10:21:16;;;;;;;17.92;9.75;;;21.20;34.80;;;;;;5051223;28;20167;-81
2021/04/01 10:23:44;;;;;;;19.02;9.82;;;21.20;34.10;;;;;;5051217;28;20502;-81
2021/04/01 10:26:11;;;;;;;18.65;9.23;;;21.30;33.30;;;;;;5048452;28;20021;-81
2021/04/01 10:31:24;;;;;;;20.27;10.27;;;21.40;32.20;;;;;;5052748;28;20033;-81
2021/04/01 10:33:55;;;;;;;19.10;10.55;;;21.60;33.30;;;;;;5052912;28;20052;-81
2021/04/01 10:36:29;;;;;;;18.95;10.35;;;21.60;32.80;;;;;;5051567;28;20017;-81
2021/04/01 10:39:19;;;;;;;16.05;9.43;;;21.30;32.10;;;;;;5051471;28;20386;-80
2021/04/01 10:41:50;;;;;;;17.45;10.05;;;21.40;32.40;;;;;;5052437;28;20455;-81
2021/04/01 10:44:19;;;;;;;19.90;11.05;;;21.70;32.70;;;;;;5051496;28;20386;-81
2021/04/01 10:46:54;;;;;;;17.67;9.85;;;21.80;32.90;;;;;;5035076;28;20018;-78
2021/04/01 10:49:26;;;;;;;16.05;10.02;;;21.90;32.50;;;;;;5035906;28;20037;-81
2021/04/01 10:51:55;;;;;;;23.80;11.80;;;21.80;32.00;;;;;;5033516;28;20545;-76
2021/04/01 10:54:23;;;;;;;15.55;10.00;;;21.70;31.80;;;;;;5050435;28;20029;-78
2021/04/01 10:56:55;;;;;;;14.68;9.82;;;21.70;32.20;;;;;;5036748;28;20029;-77
2021/04/01 10:59:33;;;;;;;16.02;8.88;;;21.40;31.10;;;;;;5043754;28;20465;-79
2021/04/01 11:02:02;;;;;;;18.17;9.60;;;21.50;32.40;;;;;;5052286;28;20025;-78
2021/04/01 11:04:30;;;;;;;16.40;9.57;;;21.50;33.20;;;;;;5053954;28;20021;-77
2021/04/01 11:07:02;;;;;;;16.60;8.75;;;21.40;32.40;;;;;;5050616;28;20120;-81
2021/04/01 11:09:32;;;;;;;17.65;9.32;;;21.20;31.80;;;;;;5048547;28;20037;-80
2021/04/01 11:14:32;;;;;;;15.32;9.05;;;21.00;31.40;;;;;;5050504;28;21176;-81
2021/04/01 11:17:00;;;;;;;14.55;8.23;;;20.90;32.30;;;;;;5051429;28;20044;-81
2021/04/01 11:19:30;;;;;;;15.38;7.90;;;20.90;32.20;;;;;;5053693;28;20372;-82
2021/04/01 11:22:02;;;;;;;14.35;8.70;;;20.90;32.80;;;;;;5052254;28;20017;-80
2021/04/01 11:24:33;;;;;;;12.52;7.88;;;21.00;32.60;;;;;;5051551;28;20032;-80
2021/04/01 11:27:18;;;;;;;16.27;9.90;;;21.00;32.60;;;;;;5049952;28;20056;-80
2021/04/01 11:29:57;;;;;;;15.68;7.63;;;21.00;32.40;;;;;;5042841;28;20562;-81
2021/04/01 11:32:31;;;;;;;18.35;8.65;;;21.00;32.20;;;;;;5039460;28;20064;-82
2021/04/01 11:35:00;;;;;;;16.45;8.00;;;21.00;32.10;;;;;;5051158;28;20031;-80
2021/04/01 11:37:34;;;;;;;15.88;8.93;;;21.00;32.30;;;;;;5048514;28;20056;-81
2021/04/01 11:40:08;;;;;;;19.30;10.60;;;21.00;32.70;;;;;;5050554;28;20024;-81
2021/04/01 11:42:35;;;;;;;17.75;9.07;;;21.00;33.10;;;;;;5047969;28;20371;-81
2021/04/01 11:45:06;;;;;;;18.13;8.98;;;21.00;33.20;;;;;;5047441;28;20021;-81
2021/04/01 11:47:36;;;;;;;15.50;9.60;;;21.00;33.10;;;;;;5048574;28;20035;-81
2021/04/01 11:50:05;;;;;;;16.50;9.23;;;21.00;32.60;;;;;;5047391;28;20071;-81
2021/04/01 11:52:32;;;;;;;15.68;9.38;;;21.10;33.10;;;;;;5039332;28;20226;-82
2021/04/01 11:55:12;;;;;;;18.65;9.93;;;21.10;33.40;;;;;;5048009;28;20033;-82
2021/04/01 11:57:44;;;;;;;15.45;9.23;;;21.00;33.30;;;;;;5046935;28;20029;-79
2021/04/01 12:00:15;;;;;;;16.42;9.15;;;21.00;32.80;;;;;;5044306;28;20426;-81
2021/04/01 12:03:01;;;;;;;16.77;9.05;;;20.90;32.80;;;;;;5043908;28;20090;-81
2021/04/01 12:05:30;;;;;;;15.07;9.02;;;21.00;33.60;;;;;;5034747;28;20030;-82
2021/04/01 12:07:57;;;;;;;19.38;10.15;;;21.10;34.30;;;;;;5036278;28;20092;-81
2021/04/01 12:10:24;;;;;;;14.32;8.90;;;21.10;34.00;;;;;;5044419;28;20031;-80
2021/04/01 12:12:54;;;;;;;13.32;8.10;;;21.30;34.50;;;;;;5040657;28;20026;-81
2021/04/01 12:15:50;;;;;;;14.52;8.02;;;21.30;33.50;;;;;;5038048;28;20072;-81
2021/04/01 12:18:17;;;;;;;19.65;8.52;;;21.40;33.00;;;;;;5047488;28;20048;-82
2021/04/01 12:20:44;;;;;;;17.23;9.48;;;21.40;32.30;;;;;;5049302;28;20051;-82
2021/04/01 12:23:24;;;;;;;14.18;8.57;;;21.40;32.20;;;;;;5043405;28;20452;-81
2021/04/01 12:26:01;;;;;;;18.98;9.25;;;21.30;31.80;;;;;;5040241;28;20033;-81
2021/04/01 12:28:28;;;;;;;20.10;10.25;;;21.40;32.80;;;;;;5039980;28;20106;-81
2021/04/01 12:30:54;;;;;;;14.75;9.35;;;21.30;32.20;;;;;;5037574;28;20026;-82
2021/04/01 12:33:28;;;;;;;16.20;8.88;;;21.20;32.60;;;;;;5032339;28;20017;-83
2021/04/01 12:36:03;;;;;;;17.00;7.97;;;21.20;33.00;;;;;;5039258;28;20105;-79
2021/04/01 12:38:35;;;;;;;15.38;8.55;;;21.20;32.50;;;;;;5048958;28;20063;-81
2021/04/01 12:41:03;;;;;;;12.52;8.27;;;21.00;31.40;;;;;;5049600;28;20457;-81
2021/04/01 12:43:35;;;;;;;10.70;7.93;;;21.10;32.10;;;;;;5048988;28;20497;-82
2021/04/01 12:46:02;;;;;;;15.07;8.27;;;21.00;31.50;;;;;;5042599;28;20025;-82
2021/04/01 12:48:50;;;;;;;17.38;8.27;;;20.90;31.40;;;;;;5008743;28;879547;-81
2021/04/01 12:51:20;;;;;;;15.02;8.38;;;21.00;31.60;;;;;;5053330;28;20021;-83
2021/04/01 12:54:14;;;;;;;17.05;9.15;;;21.00;31.20;;;;;;5052130;28;20021;-82
2021/04/01 12:56:48;;;;;;;14.68;7.93;;;21.00;30.70;;;;;;5052692;28;20113;-81
2021/04/01 12:59:36;;;;;;;18.52;8.02;;;21.10;31.30;;;;;;5052874;28;20033;-81
2021/04/01 13:02:11;;;;;;;12.82;6.88;;;21.20;31.90;;;;;;5053031;28;20027;-82
2021/04/01 13:04:40;;;;;;;16.00;8.18;;;21.20;31.40;;;;;;5053773;28;20032;-82
2021/04/01 13:12:23;;;;;;;10.30;6.60;;;21.00;29.80;;;;;;5054214;28;20059;-81
2021/04/01 13:14:50;;;;;;;14.55;7.18;;;21.00;29.50;;;;;;5053533;28;20078;-81
2021/04/01 13:17:18;;;;;;;10.15;6.32;;;20.90;29.00;;;;;;5052385;28;20025;-82
2021/04/01 13:19:44;;;;;;;12.65;7.10;;;20.80;29.10;;;;;;5046904;28;20060;-82
2021/04/01 13:27:11;;;;;;;11.93;7.75;;;20.80;29.50;;;;;;5050964;28;20078;-81
2021/04/01 13:29:40;;;;;;;12.93;7.78;;;20.70;29.30;;;;;;5047292;28;20044;-82
2021/04/01 13:38:03;;;;;;;12.85;6.53;;;20.80;29.60;;;;;;5047603;28;20571;-80
2021/04/01 13:40:29;;;;;;;9.68;6.35;;;20.80;30.00;;;;;;5049287;28;20032;-80
2021/04/01 13:42:58;;;;;;;13.65;7.22;;;21.00;30.80;;;;;;5048732;28;20402;-80
2021/04/01 13:45:25;;;;;;;12.80;6.82;;;20.90;30.20;;;;;;5034905;28;20088;-81
2021/04/01 13:48:02;;;;;;;13.20;7.20;;;20.80;30.00;;;;;;5046838;28;20033;-77
2021/04/01 13:50:30;;;;;;;13.63;6.50;;;20.80;30.20;;;;;;5050765;28;20083;-79
2021/04/01 13:53:12;;;;;;;12.48;6.70;;;20.70;30.60;;;;;;5041824;28;20021;-79
2021/04/01 13:55:41;;;;;;;10.55;6.68;;;20.60;30.00;;;;;;5041504;28;20029;-78
2021/04/01 14:09:36;;;;;;;14.60;8.13;;;20.80;30.20;;;;;;5052967;28;20071;-79
2021/04/01 14:12:07;;;;;;;13.57;8.48;;;20.60;30.10;;;;;;5050611;28;20025;-78
2021/04/01 14:14:35;;;;;;;14.77;7.55;;;20.60;30.00;;;;;;5051044;28;20458;-83
2021/04/01 14:17:01;;;;;;;18.98;9.93;;;20.70;30.50;;;;;;5049847;28;20025;-81
2021/04/01 14:19:28;;;;;;;16.52;8.43;;;20.60;30.30;;;;;;5051463;28;20028;-78
2021/04/01 14:21:58;;;;;;;20.13;9.48;;;20.70;30.70;;;;;;5051730;28;20036;-79
2021/04/01 14:24:32;;;;;;;15.85;9.30;;;20.70;30.90;;;;;;5051636;28;20036;-79
2021/04/01 14:27:09;;;;;;;19.70;9.73;;;20.60;30.70;;;;;;5051580;28;20108;-79
2021/04/01 14:29:37;;;;;;;16.17;9.85;;;20.40;30.50;;;;;;5052689;28;20052;-79
2021/04/01 14:32:05;;;;;;;16.00;8.80;;;20.40;31.20;;;;;;5052669;28;20033;-79
2021/04/01 14:34:33;;;;;;;19.65;9.57;;;20.40;31.30;;;;;;5052641;28;20402;-79
2021/04/01 14:37:02;;;;;;;14.82;8.65;;;20.30;31.50;;;;;;5052333;28;20025;-79
2021/04/01 14:39:30;;;;;;;21.27;10.00;;;20.10;31.60;;;;;;5047844;28;20525;-79
2021/04/01 14:42:06;;;;;;;14.18;9.20;;;20.10;31.70;;;;;;5049993;28;20459;-79
2021/04/01 14:44:32;;;;;;;15.48;9.95;;;20.00;32.00;;;;;;5050948;28;20070;-79
2021/04/01 14:46:58;;;;;;;21.05;9.77;;;20.00;32.40;;;;;;5049449;28;20106;-78
2021/04/01 14:49:25;;;;;;;16.20;9.65;;;19.90;32.50;;;;;;5050943;28;20076;-78
2021/04/01 14:51:51;;;;;;;16.73;9.57;;;19.90;32.90;;;;;;5050798;28;20068;-79
2021/04/01 14:54:25;;;;;;;16.17;9.45;;;19.90;32.80;;;;;;5052035;28;20104;-78
2021/04/01 14:56:57;;;;;;;18.90;9.88;;;19.90;33.10;;;;;;5052039;28;20068;-79